sensor_id;sensor_type;location;lat;lon;timestamp;pressure;altitude;pressure_sealevel;temperature;humidity
48089;BME280;33867;50.314;7.802;2024-02-04T08:34:48;101151.06;;;11.74;74.92
48089;BME280;33867;50.314;7.802;2024-02-04T09:11:43;101097.88;;;12.47;72.93
48089;BME280;33867;50.314;7.802;2024-02-04T10:25:31;101122.44;;;12.94;72.95
48089;BME280;33867;50.314;7.802;2024-02-04T10:54:25;101087.25;;;14.18;67.10
48089;BME280;33867;50.314;7.802;2024-02-04T10:58:37;101090.63;;;14.29;66.07
48089;BME280;33867;50.314;7.802;2024-02-04T11:52:08;101050.00;;;14.02;67.05
48089;BME280;33867;50.314;7.802;2024-02-04T12:00:35;101041.78;;;13.84;66.54
48089;BME280;33867;50.314;7.802;2024-02-04T12:15:14;101036.06;;;13.50;68.41
48089;BME280;33867;50.314;7.802;2024-02-04T12:19:30;101016.19;;;13.79;66.61
48089;BME280;33867;50.314;7.802;2024-02-04T12:23:23;101027.72;;;14.08;66.69
48089;BME280;33867;50.314;7.802;2024-02-04T13:49:36;100997.41;;;13.21;70.31
48089;BME280;33867;50.314;7.802;2024-02-04T13:53:20;100987.44;;;13.21;70.11
48089;BME280;33867;50.314;7.802;2024-02-04T14:01:00;100998.78;;;13.44;69.80
48089;BME280;33867;50.314;7.802;2024-02-04T14:09:22;101004.78;;;13.38;70.36
48089;BME280;33867;50.314;7.802;2024-02-04T14:13:23;100995.38;;;13.42;70.42
48089;BME280;33867;50.314;7.802;2024-02-04T15:45:36;100956.31;;;12.59;74.76
48089;BME280;33867;50.314;7.802;2024-02-04T15:54:27;100957.16;;;12.59;74.52
48089;BME280;33867;50.314;7.802;2024-02-04T16:08:30;100956.72;;;12.35;75.26
48089;BME280;33867;50.314;7.802;2024-02-04T16:18:04;100969.63;;;12.41;73.97
48089;BME280;33867;50.314;7.802;2024-02-04T16:26:14;100956.56;;;12.66;73.33
48089;BME280;33867;50.314;7.802;2024-02-04T17:04:24;100962.72;;;12.58;72.76
48089;BME280;33867;50.314;7.802;2024-02-04T17:08:33;100970.09;;;12.66;72.17
48089;BME280;33867;50.314;7.802;2024-02-04T17:12:21;100975.50;;;12.46;73.21
48089;BME280;33867;50.314;7.802;2024-02-04T17:29:48;100967.66;;;12.63;71.94
48089;BME280;33867;50.314;7.802;2024-02-04T17:37:21;100956.84;;;12.53;72.22
48089;BME280;33867;50.314;7.802;2024-02-04T17:45:02;100931.44;;;12.55;71.91
48089;BME280;33867;50.314;7.802;2024-02-04T17:48:43;100931.25;;;12.67;71.31
48089;BME280;33867;50.314;7.802;2024-02-04T17:52:20;100929.44;;;12.67;70.77
48089;BME280;33867;50.314;7.802;2024-02-04T17:57:08;100940.09;;;12.69;70.52
48089;BME280;33867;50.314;7.802;2024-02-04T18:00:33;100932.16;;;12.67;71.06
48089;BME280;33867;50.314;7.802;2024-02-04T18:04:04;100936.38;;;12.50;71.44
48089;BME280;33867;50.314;7.802;2024-02-04T18:07:37;100942.34;;;12.54;70.25
48089;BME280;33867;50.314;7.802;2024-02-04T18:11:22;100943.50;;;12.51;70.81
48089;BME280;33867;50.314;7.802;2024-02-04T18:14:54;100944.50;;;12.70;70.47
48089;BME280;33867;50.314;7.802;2024-02-04T18:18:35;100943.91;;;12.37;70.72
48089;BME280;33867;50.314;7.802;2024-02-04T18:23:17;100947.19;;;12.60;70.50
48089;BME280;33867;50.314;7.802;2024-02-04T18:26:51;100947.34;;;12.58;70.50
48089;BME280;33867;50.314;7.802;2024-02-04T18:30:41;100953.47;;;12.61;70.13
48089;BME280;33867;50.314;7.802;2024-02-04T18:34:11;100965.41;;;12.48;70.41
48089;BME280;33867;50.314;7.802;2024-02-04T18:37:34;100952.31;;;12.53;70.07
48089;BME280;33867;50.314;7.802;2024-02-04T18:49:09;100937.81;;;12.45;69.41
48089;BME280;33867;50.314;7.802;2024-02-04T18:53:21;100944.19;;;12.53;69.45
48089;BME280;33867;50.314;7.802;2024-02-04T18:57:12;100951.72;;;12.40;69.83
48089;BME280;33867;50.314;7.802;2024-02-04T19:01:03;100943.06;;;12.37;69.68
48089;BME280;33867;50.314;7.802;2024-02-04T19:04:35;100937.81;;;12.35;69.37
48089;BME280;33867;50.314;7.802;2024-02-04T19:08:22;100933.53;;;12.42;69.80
48089;BME280;33867;50.314;7.802;2024-02-04T19:16:33;100933.13;;;12.56;69.01
48089;BME280;33867;50.314;7.802;2024-02-04T19:20:33;100936.09;;;12.53;68.93
48089;BME280;33867;50.314;7.802;2024-02-04T19:24:02;100930.69;;;12.53;68.60
48089;BME280;33867;50.314;7.802;2024-02-04T19:28:01;100941.78;;;12.41;69.38
48089;BME280;33867;50.314;7.802;2024-02-04T19:32:28;100935.84;;;12.56;68.96
48089;BME280;33867;50.314;7.802;2024-02-04T19:36:00;100935.97;;;12.45;68.83
48089;BME280;33867;50.314;7.802;2024-02-04T19:39:19;100940.09;;;12.49;69.15
48089;BME280;33867;50.314;7.802;2024-02-04T19:42:39;100953.88;;;12.46;68.83
48089;BME280;33867;50.314;7.802;2024-02-04T19:46:03;100950.03;;;12.49;69.11
48089;BME280;33867;50.314;7.802;2024-02-04T19:49:25;100954.88;;;12.45;69.20
48089;BME280;33867;50.314;7.802;2024-02-04T19:53:00;100948.31;;;12.38;69.20
48089;BME280;33867;50.314;7.802;2024-02-04T19:56:21;100949.19;;;12.39;69.13
48089;BME280;33867;50.314;7.802;2024-02-04T19:59:55;100935.25;;;12.34;69.26
48089;BME280;33867;50.314;7.802;2024-02-04T20:03:48;100941.78;;;12.41;68.98
48089;BME280;33867;50.314;7.802;2024-02-04T20:07:33;100927.31;;;12.32;69.06
48089;BME280;33867;50.314;7.802;2024-02-04T20:11:00;100939.22;;;12.29;68.81
48089;BME280;33867;50.314;7.802;2024-02-04T20:14:21;100926.97;;;12.16;68.83
48089;BME280;33867;50.314;7.802;2024-02-04T20:17:51;100925.44;;;12.42;69.04
48089;BME280;33867;50.314;7.802;2024-02-04T20:21:35;100923.19;;;12.47;68.42
48089;BME280;33867;50.314;7.802;2024-02-04T20:24:54;100928.72;;;12.55;67.79
48089;BME280;33867;50.314;7.802;2024-02-04T20:28:20;100930.72;;;12.44;67.88
48089;BME280;33867;50.314;7.802;2024-02-04T20:32:00;100947.75;;;12.64;68.09
48089;BME280;33867;50.314;7.802;2024-02-04T20:35:40;100954.75;;;12.56;67.56
48089;BME280;33867;50.314;7.802;2024-02-04T20:39:02;100970.78;;;12.48;68.01
48089;BME280;33867;50.314;7.802;2024-02-04T20:42:36;100962.66;;;12.29;68.67
48089;BME280;33867;50.314;7.802;2024-02-04T20:46:06;100971.09;;;12.45;68.32
48089;BME280;33867;50.314;7.802;2024-02-04T20:49:30;100967.94;;;12.40;68.45
48089;BME280;33867;50.314;7.802;2024-02-04T20:52:50;100963.66;;;12.28;68.78
48089;BME280;33867;50.314;7.802;2024-02-04T20:56:12;100964.81;;;12.35;68.93
48089;BME280;33867;50.314;7.802;2024-02-04T20:59:32;100965.53;;;12.37;69.07
48089;BME280;33867;50.314;7.802;2024-02-04T21:03:01;100963.94;;;12.25;68.86
48089;BME280;33867;50.314;7.802;2024-02-04T21:06:21;100965.38;;;12.29;68.91
48089;BME280;33867;50.314;7.802;2024-02-04T21:09:40;100955.72;;;12.46;68.44
48089;BME280;33867;50.314;7.802;2024-02-04T21:13:05;100966.22;;;12.29;69.08
48089;BME280;33867;50.314;7.802;2024-02-04T21:16:27;100958.38;;;12.17;69.35
48089;BME280;33867;50.314;7.802;2024-02-04T21:19:49;100965.09;;;12.22;69.26
48089;BME280;33867;50.314;7.802;2024-02-04T21:23:19;100962.53;;;12.21;69.25
48089;BME280;33867;50.314;7.802;2024-02-04T21:26:42;100954.53;;;12.10;69.62
48089;BME280;33867;50.314;7.802;2024-02-04T21:30:01;100953.09;;;12.06;69.89
48089;BME280;33867;50.314;7.802;2024-02-04T21:33:21;100954.53;;;12.10;69.50
48089;BME280;33867;50.314;7.802;2024-02-04T21:36:43;100935.91;;;12.07;70.26
48089;BME280;33867;50.314;7.802;2024-02-04T21:40:07;100930.13;;;12.11;69.82
48089;BME280;33867;50.314;7.802;2024-02-04T21:43:29;100913.34;;;12.08;69.72
48089;BME280;33867;50.314;7.802;2024-02-04T21:47:16;100917.88;;;12.07;69.29
48089;BME280;33867;50.314;7.802;2024-02-04T21:50:48;100923.44;;;12.25;69.13
48089;BME280;33867;50.314;7.802;2024-02-04T21:54:23;100923.16;;;12.28;69.22
48089;BME280;33867;50.314;7.802;2024-02-04T21:57:43;100906.81;;;12.10;69.53
48089;BME280;33867;50.314;7.802;2024-02-04T22:01:05;100895.44;;;12.16;69.00
48089;BME280;33867;50.314;7.802;2024-02-04T22:04:43;100910.38;;;12.11;69.51
48089;BME280;33867;50.314;7.802;2024-02-04T22:08:08;100886.78;;;12.32;68.55
48089;BME280;33867;50.314;7.802;2024-02-04T22:11:27;100888.66;;;12.32;68.95
48089;BME280;33867;50.314;7.802;2024-02-04T22:14:46;100900.28;;;12.22;68.74
48089;BME280;33867;50.314;7.802;2024-02-04T22:18:05;100888.19;;;12.17;68.53
48089;BME280;33867;50.314;7.802;2024-02-04T22:25:55;100891.72;;;11.98;69.45
48089;BME280;33867;50.314;7.802;2024-02-04T22:29:14;100887.34;;;12.16;69.75
48089;BME280;33867;50.314;7.802;2024-02-04T22:32:49;100890.75;;;11.99;70.13
48089;BME280;33867;50.314;7.802;2024-02-04T22:36:34;100883.06;;;12.14;69.42
48089;BME280;33867;50.314;7.802;2024-02-04T22:39:54;100881.50;;;12.02;69.54
48089;BME280;33867;50.314;7.802;2024-02-04T22:43:17;100892.00;;;12.05;69.45
48089;BME280;33867;50.314;7.802;2024-02-04T22:46:36;100882.38;;;12.12;69.02
48089;BME280;33867;50.314;7.802;2024-02-04T22:49:56;100883.91;;;12.05;69.22
48089;BME280;33867;50.314;7.802;2024-02-04T22:53:16;100886.03;;;11.91;69.51
48089;BME280;33867;50.314;7.802;2024-02-04T22:57:01;100905.09;;;11.99;69.47
48089;BME280;33867;50.314;7.802;2024-02-04T23:00:42;100892.16;;;12.03;69.30
48089;BME280;33867;50.314;7.802;2024-02-04T23:04:05;100905.09;;;11.99;69.53
48089;BME280;33867;50.314;7.802;2024-02-04T23:07:27;100898.00;;;12.08;69.03
48089;BME280;33867;50.314;7.802;2024-02-04T23:10:47;100894.97;;;11.92;69.87
48089;BME280;33867;50.314;7.802;2024-02-04T23:14:25;100908.34;;;12.03;69.69
48089;BME280;33867;50.314;7.802;2024-02-04T23:18:19;100899.69;;;11.99;69.83
48089;BME280;33867;50.314;7.802;2024-02-04T23:21:40;100885.63;;;11.96;70.04
48089;BME280;33867;50.314;7.802;2024-02-04T23:25:10;100882.91;;;11.86;70.80
48089;BME280;33867;50.314;7.802;2024-02-04T23:28:40;100878.78;;;11.92;70.44
48089;BME280;33867;50.314;7.802;2024-02-04T23:32:02;100874.81;;;11.86;70.93
48089;BME280;33867;50.314;7.802;2024-02-04T23:35:24;100886.19;;;11.99;70.87
48089;BME280;33867;50.314;7.802;2024-02-04T23:38:46;100880.91;;;11.88;71.21
48089;BME280;33867;50.314;7.802;2024-02-04T23:46:18;100893.09;;;11.83;71.43
48089;BME280;33867;50.314;7.802;2024-02-04T23:49:48;100889.44;;;11.93;70.74
48089;BME280;33867;50.314;7.802;2024-02-04T23:53:07;100877.31;;;11.78;71.62
48089;BME280;33867;50.314;7.802;2024-02-04T23:56:31;100871.97;;;11.88;71.60
48089;BME280;33867;50.314;7.802;2024-02-04T23:59:59;100876.75;;;11.75;71.68
